sensor_id;sensor_type;location;lat;lon;timestamp;temperature;humidity
27540;DHT22;15906;52.046;4.724;2023-03-24T00:00:09;12.00;99.90
27540;DHT22;15906;52.046;4.724;2023-03-24T00:02:39;12.00;99.90
27540;DHT22;15906;52.046;4.724;2023-03-24T00:05:17;11.90;99.90
27540;DHT22;15906;52.046;4.724;2023-03-24T00:07:43;12.00;99.90
27540;DHT22;15906;52.046;4.724;2023-03-24T00:10:19;12.00;99.90
27540;DHT22;15906;52.046;4.724;2023-03-24T00:12:48;12.00;99.90
27540;DHT22;15906;52.046;4.724;2023-03-24T00:15:16;12.00;99.90
27540;DHT22;15906;52.046;4.724;2023-03-24T00:17:44;12.00;99.90
27540;DHT22;15906;52.046;4.724;2023-03-24T00:20:13;12.00;99.90
27540;DHT22;15906;52.046;4.724;2023-03-24T00:22:48;12.00;99.90
27540;DHT22;15906;52.046;4.724;2023-03-24T00:25:20;12.10;99.90
27540;DHT22;15906;52.046;4.724;2023-03-24T00:27:49;12.10;99.90
27540;DHT22;15906;52.046;4.724;2023-03-24T00:30:17;12.20;99.90
27540;DHT22;15906;52.046;4.724;2023-03-24T00:32:43;12.10;99.90
27540;DHT22;15906;52.046;4.724;2023-03-24T00:35:10;12.10;99.90
27540;DHT22;15906;52.046;4.724;2023-03-24T00:37:38;12.20;99.90
27540;DHT22;15906;52.046;4.724;2023-03-24T00:40:09;12.20;99.90
27540;DHT22;15906;52.046;4.724;2023-03-24T00:42:37;12.30;99.90
27540;DHT22;15906;52.046;4.724;2023-03-24T00:45:04;12.20;99.90
27540;DHT22;15906;52.046;4.724;2023-03-24T00:47:32;12.30;99.90
27540;DHT22;15906;52.046;4.724;2023-03-24T00:50:02;12.30;99.90
27540;DHT22;15906;52.046;4.724;2023-03-24T00:52:27;12.30;99.90
27540;DHT22;15906;52.046;4.724;2023-03-24T00:54:58;12.40;99.90
27540;DHT22;15906;52.046;4.724;2023-03-24T00:57:27;12.30;99.90
27540;DHT22;15906;52.046;4.724;2023-03-24T00:59:54;12.40;99.90
27540;DHT22;15906;52.046;4.724;2023-03-24T01:02:25;12.30;99.90
27540;DHT22;15906;52.046;4.724;2023-03-24T01:04:53;12.40;99.90
27540;DHT22;15906;52.046;4.724;2023-03-24T01:07:27;12.30;99.90
27540;DHT22;15906;52.046;4.724;2023-03-24T01:09:55;12.30;99.90
27540;DHT22;15906;52.046;4.724;2023-03-24T01:12:28;12.30;99.90
27540;DHT22;15906;52.046;4.724;2023-03-24T01:14:57;12.20;99.90
27540;DHT22;15906;52.046;4.724;2023-03-24T01:17:22;12.30;99.90
27540;DHT22;15906;52.046;4.724;2023-03-24T01:19:51;12.30;99.90
27540;DHT22;15906;52.046;4.724;2023-03-24T01:22:16;12.30;99.90
27540;DHT22;15906;52.046;4.724;2023-03-24T01:24:42;12.20;99.90
27540;DHT22;15906;52.046;4.724;2023-03-24T01:27:08;12.20;99.90
27540;DHT22;15906;52.046;4.724;2023-03-24T01:29:34;12.20;99.90
27540;DHT22;15906;52.046;4.724;2023-03-24T01:32:00;12.20;99.90
27540;DHT22;15906;52.046;4.724;2023-03-24T01:34:25;12.30;99.90
27540;DHT22;15906;52.046;4.724;2023-03-24T01:36:51;12.20;99.90
27540;DHT22;15906;52.046;4.724;2023-03-24T01:39:17;12.30;99.90
27540;DHT22;15906;52.046;4.724;2023-03-24T01:41:42;12.20;99.90
27540;DHT22;15906;52.046;4.724;2023-03-24T01:46:49;12.20;99.90
27540;DHT22;15906;52.046;4.724;2023-03-24T01:49:15;12.20;99.90
27540;DHT22;15906;52.046;4.724;2023-03-24T01:51:44;12.20;99.90
27540;DHT22;15906;52.046;4.724;2023-03-24T01:54:18;12.20;99.90
27540;DHT22;15906;52.046;4.724;2023-03-24T01:56:49;12.20;99.90
27540;DHT22;15906;52.046;4.724;2023-03-24T01:59:22;12.10;99.90
27540;DHT22;15906;52.046;4.724;2023-03-24T02:01:48;12.10;99.90
27540;DHT22;15906;52.046;4.724;2023-03-24T02:04:14;12.10;99.90
27540;DHT22;15906;52.046;4.724;2023-03-24T02:06:42;12.00;99.90
27540;DHT22;15906;52.046;4.724;2023-03-24T02:09:09;12.00;99.90
27540;DHT22;15906;52.046;4.724;2023-03-24T02:11:36;11.90;99.90
27540;DHT22;15906;52.046;4.724;2023-03-24T02:14:04;11.80;99.90
27540;DHT22;15906;52.046;4.724;2023-03-24T02:16:51;11.80;99.90
27540;DHT22;15906;52.046;4.724;2023-03-24T02:19:34;11.70;99.90
27540;DHT22;15906;52.046;4.724;2023-03-24T02:27:58;11.30;99.90
27540;DHT22;15906;52.046;4.724;2023-03-24T02:47:24;10.90;99.90
27540;DHT22;15906;52.046;4.724;2023-03-24T02:58:34;10.60;99.90
27540;DHT22;15906;52.046;4.724;2023-03-24T03:01:05;10.60;99.90
27540;DHT22;15906;52.046;4.724;2023-03-24T03:03:43;10.50;99.90
27540;DHT22;15906;52.046;4.724;2023-03-24T03:06:24;10.40;99.90
27540;DHT22;15906;52.046;4.724;2023-03-24T03:08:50;10.40;99.90
27540;DHT22;15906;52.046;4.724;2023-03-24T03:11:17;10.40;99.90
27540;DHT22;15906;52.046;4.724;2023-03-24T03:13:51;10.30;99.90
27540;DHT22;15906;52.046;4.724;2023-03-24T03:16:22;10.30;99.90
27540;DHT22;15906;52.046;4.724;2023-03-24T03:18:57;10.30;99.90
27540;DHT22;15906;52.046;4.724;2023-03-24T03:21:28;10.30;99.90
27540;DHT22;15906;52.046;4.724;2023-03-24T03:23:59;10.20;99.90
27540;DHT22;15906;52.046;4.724;2023-03-24T03:26:28;10.20;99.90
27540;DHT22;15906;52.046;4.724;2023-03-24T03:29:00;10.10;99.90
27540;DHT22;15906;52.046;4.724;2023-03-24T03:31:35;10.10;99.90
27540;DHT22;15906;52.046;4.724;2023-03-24T03:34:28;10.00;99.90
27540;DHT22;15906;52.046;4.724;2023-03-24T03:39:47;10.00;99.90
27540;DHT22;15906;52.046;4.724;2023-03-24T03:42:14;10.10;99.90
27540;DHT22;15906;52.046;4.724;2023-03-24T03:44:39;10.10;99.90
27540;DHT22;15906;52.046;4.724;2023-03-24T03:47:05;10.10;99.90
27540;DHT22;15906;52.046;4.724;2023-03-24T03:49:31;10.10;99.90
27540;DHT22;15906;52.046;4.724;2023-03-24T03:51:56;10.10;99.90
27540;DHT22;15906;52.046;4.724;2023-03-24T03:54:23;10.20;99.90
27540;DHT22;15906;52.046;4.724;2023-03-24T03:56:50;10.10;99.90
27540;DHT22;15906;52.046;4.724;2023-03-24T04:01:49;10.10;99.90
27540;DHT22;15906;52.046;4.724;2023-03-24T04:07:23;10.20;99.90
27540;DHT22;15906;52.046;4.724;2023-03-24T04:12:55;10.10;99.90
27540;DHT22;15906;52.046;4.724;2023-03-24T04:20:47;10.10;99.90
27540;DHT22;15906;52.046;4.724;2023-03-24T04:26:36;10.00;99.90
27540;DHT22;15906;52.046;4.724;2023-03-24T04:29:19;10.00;99.90
27540;DHT22;15906;52.046;4.724;2023-03-24T04:34:31;10.00;99.90
27540;DHT22;15906;52.046;4.724;2023-03-24T04:37:12;9.90;99.90
27540;DHT22;15906;52.046;4.724;2023-03-24T04:39:41;9.80;99.90
27540;DHT22;15906;52.046;4.724;2023-03-24T04:42:22;9.80;99.90
27540;DHT22;15906;52.046;4.724;2023-03-24T04:44:50;9.80;99.90
27540;DHT22;15906;52.046;4.724;2023-03-24T04:47:18;9.80;99.90
27540;DHT22;15906;52.046;4.724;2023-03-24T04:49:45;9.70;99.90
27540;DHT22;15906;52.046;4.724;2023-03-24T04:52:11;9.70;99.90
27540;DHT22;15906;52.046;4.724;2023-03-24T04:54:36;9.70;99.90
27540;DHT22;15906;52.046;4.724;2023-03-24T04:57:02;9.70;99.90
27540;DHT22;15906;52.046;4.724;2023-03-24T04:59:29;9.70;99.90
27540;DHT22;15906;52.046;4.724;2023-03-24T05:01:58;9.60;99.90
27540;DHT22;15906;52.046;4.724;2023-03-24T05:04:25;9.60;99.90
27540;DHT22;15906;52.046;4.724;2023-03-24T05:06:51;9.60;99.90
27540;DHT22;15906;52.046;4.724;2023-03-24T05:09:18;9.60;99.90
27540;DHT22;15906;52.046;4.724;2023-03-24T05:11:46;9.50;99.90
27540;DHT22;15906;52.046;4.724;2023-03-24T05:14:11;9.50;99.90
27540;DHT22;15906;52.046;4.724;2023-03-24T05:16:37;9.60;99.90
27540;DHT22;15906;52.046;4.724;2023-03-24T05:19:03;9.60;99.90
27540;DHT22;15906;52.046;4.724;2023-03-24T05:21:29;9.60;99.90
27540;DHT22;15906;52.046;4.724;2023-03-24T05:23:55;9.70;99.90
27540;DHT22;15906;52.046;4.724;2023-03-24T05:26:21;9.70;99.90
27540;DHT22;15906;52.046;4.724;2023-03-24T05:28:46;9.80;99.90
27540;DHT22;15906;52.046;4.724;2023-03-24T05:31:12;9.80;99.90
27540;DHT22;15906;52.046;4.724;2023-03-24T05:33:37;9.80;99.90
27540;DHT22;15906;52.046;4.724;2023-03-24T05:36:03;9.80;99.90
27540;DHT22;15906;52.046;4.724;2023-03-24T05:38:29;9.80;99.90
27540;DHT22;15906;52.046;4.724;2023-03-24T05:40:59;9.90;99.90
27540;DHT22;15906;52.046;4.724;2023-03-24T05:43:26;10.00;99.90
27540;DHT22;15906;52.046;4.724;2023-03-24T05:45:51;10.00;99.90
27540;DHT22;15906;52.046;4.724;2023-03-24T05:48:17;9.90;99.90
27540;DHT22;15906;52.046;4.724;2023-03-24T05:50:43;10.00;99.90
27540;DHT22;15906;52.046;4.724;2023-03-24T05:53:08;10.00;99.90
27540;DHT22;15906;52.046;4.724;2023-03-24T05:55:35;10.00;99.90
27540;DHT22;15906;52.046;4.724;2023-03-24T05:58:01;10.10;99.90
27540;DHT22;15906;52.046;4.724;2023-03-24T06:00:31;10.10;99.90
27540;DHT22;15906;52.046;4.724;2023-03-24T06:02:58;10.10;99.90
27540;DHT22;15906;52.046;4.724;2023-03-24T06:05:24;10.10;99.90
27540;DHT22;15906;52.046;4.724;2023-03-24T06:07:49;10.20;99.90
27540;DHT22;15906;52.046;4.724;2023-03-24T06:10:15;10.10;99.90
27540;DHT22;15906;52.046;4.724;2023-03-24T06:12:43;10.00;99.90
27540;DHT22;15906;52.046;4.724;2023-03-24T06:15:09;10.10;99.90
27540;DHT22;15906;52.046;4.724;2023-03-24T06:17:35;10.10;99.90
27540;DHT22;15906;52.046;4.724;2023-03-24T06:20:07;10.10;99.90
27540;DHT22;15906;52.046;4.724;2023-03-24T06:22:39;10.10;99.90
27540;DHT22;15906;52.046;4.724;2023-03-24T06:25:05;10.20;99.90
27540;DHT22;15906;52.046;4.724;2023-03-24T06:27:31;10.20;99.90
27540;DHT22;15906;52.046;4.724;2023-03-24T06:29:56;10.30;99.90
27540;DHT22;15906;52.046;4.724;2023-03-24T06:32:22;10.20;99.90
27540;DHT22;15906;52.046;4.724;2023-03-24T06:34:48;10.30;99.90
27540;DHT22;15906;52.046;4.724;2023-03-24T06:37:14;10.30;99.90
27540;DHT22;15906;52.046;4.724;2023-03-24T06:39:40;10.20;99.90
27540;DHT22;15906;52.046;4.724;2023-03-24T06:42:05;10.20;99.90
27540;DHT22;15906;52.046;4.724;2023-03-24T06:44:32;10.30;99.90
27540;DHT22;15906;52.046;4.724;2023-03-24T06:46:58;10.30;99.90
27540;DHT22;15906;52.046;4.724;2023-03-24T06:49:23;10.20;99.90
27540;DHT22;15906;52.046;4.724;2023-03-24T06:51:49;10.20;99.90
27540;DHT22;15906;52.046;4.724;2023-03-24T06:54:15;10.20;99.90
27540;DHT22;15906;52.046;4.724;2023-03-24T06:56:41;10.30;99.90
27540;DHT22;15906;52.046;4.724;2023-03-24T06:59:07;10.30;99.90
27540;DHT22;15906;52.046;4.724;2023-03-24T07:01:33;10.40;99.90
27540;DHT22;15906;52.046;4.724;2023-03-24T07:04:00;10.30;99.90
27540;DHT22;15906;52.046;4.724;2023-03-24T07:06:26;10.40;99.90
27540;DHT22;15906;52.046;4.724;2023-03-24T07:08:51;10.40;99.90
27540;DHT22;15906;52.046;4.724;2023-03-24T07:11:17;10.50;99.90
27540;DHT22;15906;52.046;4.724;2023-03-24T07:13:42;10.50;99.90
27540;DHT22;15906;52.046;4.724;2023-03-24T07:16:08;10.60;99.90
27540;DHT22;15906;52.046;4.724;2023-03-24T07:18:34;10.50;99.90
27540;DHT22;15906;52.046;4.724;2023-03-24T07:20:59;10.50;99.90
27540;DHT22;15906;52.046;4.724;2023-03-24T07:23:25;10.60;99.90
27540;DHT22;15906;52.046;4.724;2023-03-24T07:25:52;10.50;99.90
27540;DHT22;15906;52.046;4.724;2023-03-24T07:28:17;10.60;99.90
27540;DHT22;15906;52.046;4.724;2023-03-24T07:30:43;10.70;99.90
27540;DHT22;15906;52.046;4.724;2023-03-24T07:33:09;10.70;99.90
27540;DHT22;15906;52.046;4.724;2023-03-24T07:35:37;10.80;99.90
27540;DHT22;15906;52.046;4.724;2023-03-24T07:38:02;10.80;99.90
27540;DHT22;15906;52.046;4.724;2023-03-24T07:40:29;10.90;99.90
27540;DHT22;15906;52.046;4.724;2023-03-24T07:42:58;11.00;99.90
27540;DHT22;15906;52.046;4.724;2023-03-24T07:45:24;11.00;99.90
27540;DHT22;15906;52.046;4.724;2023-03-24T07:47:50;11.00;99.90
27540;DHT22;15906;52.046;4.724;2023-03-24T07:50:16;11.00;99.90
27540;DHT22;15906;52.046;4.724;2023-03-24T07:52:45;11.00;99.90
27540;DHT22;15906;52.046;4.724;2023-03-24T07:55:11;11.00;99.90
27540;DHT22;15906;52.046;4.724;2023-03-24T07:57:39;11.00;99.90
27540;DHT22;15906;52.046;4.724;2023-03-24T08:00:07;11.10;99.90
27540;DHT22;15906;52.046;4.724;2023-03-24T08:02:39;11.20;99.90
27540;DHT22;15906;52.046;4.724;2023-03-24T08:05:06;11.30;99.90
27540;DHT22;15906;52.046;4.724;2023-03-24T08:07:32;11.40;99.90
27540;DHT22;15906;52.046;4.724;2023-03-24T08:09:58;11.40;99.90
27540;DHT22;15906;52.046;4.724;2023-03-24T08:12:24;11.50;99.90
27540;DHT22;15906;52.046;4.724;2023-03-24T08:14:50;11.40;99.90
27540;DHT22;15906;52.046;4.724;2023-03-24T08:17:15;11.40;99.90
27540;DHT22;15906;52.046;4.724;2023-03-24T08:19:41;11.50;99.90
27540;DHT22;15906;52.046;4.724;2023-03-24T08:22:06;11.50;99.90
27540;DHT22;15906;52.046;4.724;2023-03-24T08:24:32;11.50;99.90
27540;DHT22;15906;52.046;4.724;2023-03-24T08:26:58;11.70;99.90
27540;DHT22;15906;52.046;4.724;2023-03-24T08:29:27;11.90;99.90
27540;DHT22;15906;52.046;4.724;2023-03-24T08:31:52;11.90;99.90
27540;DHT22;15906;52.046;4.724;2023-03-24T08:34:18;12.00;99.90
27540;DHT22;15906;52.046;4.724;2023-03-24T08:36:43;11.90;99.90
27540;DHT22;15906;52.046;4.724;2023-03-24T08:39:09;11.80;99.90
27540;DHT22;15906;52.046;4.724;2023-03-24T08:41:35;11.70;99.90
27540;DHT22;15906;52.046;4.724;2023-03-24T08:44:04;11.60;99.90
27540;DHT22;15906;52.046;4.724;2023-03-24T08:46:30;11.60;99.90
27540;DHT22;15906;52.046;4.724;2023-03-24T08:48:57;11.70;99.90
27540;DHT22;15906;52.046;4.724;2023-03-24T08:51:23;11.70;99.90
27540;DHT22;15906;52.046;4.724;2023-03-24T08:53:49;11.70;99.90
27540;DHT22;15906;52.046;4.724;2023-03-24T08:56:17;11.70;99.90
27540;DHT22;15906;52.046;4.724;2023-03-24T08:58:43;11.70;99.90
27540;DHT22;15906;52.046;4.724;2023-03-24T09:01:09;11.80;99.90
27540;DHT22;15906;52.046;4.724;2023-03-24T09:03:34;11.80;99.90
27540;DHT22;15906;52.046;4.724;2023-03-24T09:06:04;11.70;99.90
27540;DHT22;15906;52.046;4.724;2023-03-24T09:08:30;11.70;99.90
27540;DHT22;15906;52.046;4.724;2023-03-24T09:10:56;11.70;99.90
27540;DHT22;15906;52.046;4.724;2023-03-24T09:13:22;11.70;99.90
27540;DHT22;15906;52.046;4.724;2023-03-24T09:15:50;11.60;99.90
27540;DHT22;15906;52.046;4.724;2023-03-24T09:18:17;11.60;99.90
27540;DHT22;15906;52.046;4.724;2023-03-24T09:20:44;11.60;99.90
27540;DHT22;15906;52.046;4.724;2023-03-24T09:23:10;11.70;99.90
27540;DHT22;15906;52.046;4.724;2023-03-24T09:25:36;11.70;99.90
27540;DHT22;15906;52.046;4.724;2023-03-24T09:28:01;11.90;99.90
27540;DHT22;15906;52.046;4.724;2023-03-24T09:30:27;12.10;99.90
27540;DHT22;15906;52.046;4.724;2023-03-24T09:32:52;12.60;99.90
27540;DHT22;15906;52.046;4.724;2023-03-24T09:35:18;13.10;99.90
27540;DHT22;15906;52.046;4.724;2023-03-24T09:37:44;13.40;99.90
27540;DHT22;15906;52.046;4.724;2023-03-24T09:40:31;13.20;99.90
27540;DHT22;15906;52.046;4.724;2023-03-24T09:45:37;13.30;99.90
27540;DHT22;15906;52.046;4.724;2023-03-24T09:48:13;13.20;99.90
27540;DHT22;15906;52.046;4.724;2023-03-24T09:50:50;13.40;99.90
27540;DHT22;15906;52.046;4.724;2023-03-24T09:56:22;13.70;99.90
27540;DHT22;15906;52.046;4.724;2023-03-24T09:59:28;13.80;99.90
27540;DHT22;15906;52.046;4.724;2023-03-24T10:01:55;13.80;99.90
27540;DHT22;15906;52.046;4.724;2023-03-24T10:04:25;13.60;99.90
27540;DHT22;15906;52.046;4.724;2023-03-24T10:06:59;13.30;99.90
27540;DHT22;15906;52.046;4.724;2023-03-24T10:09:35;13.20;99.90
27540;DHT22;15906;52.046;4.724;2023-03-24T10:20:27;12.90;99.90
27540;DHT22;15906;52.046;4.724;2023-03-24T10:22:58;13.40;99.90
27540;DHT22;15906;52.046;4.724;2023-03-24T10:25:49;13.60;99.90
27540;DHT22;15906;52.046;4.724;2023-03-24T10:29:08;14.00;99.90
27540;DHT22;15906;52.046;4.724;2023-03-24T10:31:15;13.70;99.90
27540;DHT22;15906;52.046;4.724;2023-03-24T10:33:43;13.60;99.90
27540;DHT22;15906;52.046;4.724;2023-03-24T10:36:15;13.70;99.90
27540;DHT22;15906;52.046;4.724;2023-03-24T10:38:42;13.30;99.90
27540;DHT22;15906;52.046;4.724;2023-03-24T10:41:14;13.10;99.90
27540;DHT22;15906;52.046;4.724;2023-03-24T10:43:41;13.10;99.90
27540;DHT22;15906;52.046;4.724;2023-03-24T10:46:08;13.20;99.90
27540;DHT22;15906;52.046;4.724;2023-03-24T10:51:05;13.60;99.90
27540;DHT22;15906;52.046;4.724;2023-03-24T10:53:32;13.70;99.90
27540;DHT22;15906;52.046;4.724;2023-03-24T10:55:58;13.50;99.90
27540;DHT22;15906;52.046;4.724;2023-03-24T10:58:34;13.30;99.90
27540;DHT22;15906;52.046;4.724;2023-03-24T11:01:01;13.20;99.90
27540;DHT22;15906;52.046;4.724;2023-03-24T11:03:30;13.40;99.90
27540;DHT22;15906;52.046;4.724;2023-03-24T11:06:01;13.40;99.90
27540;DHT22;15906;52.046;4.724;2023-03-24T11:08:36;13.30;99.90
27540;DHT22;15906;52.046;4.724;2023-03-24T11:13:40;13.50;99.90
27540;DHT22;15906;52.046;4.724;2023-03-24T11:16:13;13.40;99.90
27540;DHT22;15906;52.046;4.724;2023-03-24T11:18:58;13.40;99.90
27540;DHT22;15906;52.046;4.724;2023-03-24T11:21:27;13.50;99.90
27540;DHT22;15906;52.046;4.724;2023-03-24T11:23:55;13.50;99.90
27540;DHT22;15906;52.046;4.724;2023-03-24T11:26:29;13.40;99.90
27540;DHT22;15906;52.046;4.724;2023-03-24T11:28:57;13.20;99.90
27540;DHT22;15906;52.046;4.724;2023-03-24T11:31:29;13.10;99.90
27540;DHT22;15906;52.046;4.724;2023-03-24T11:34:00;13.00;99.90
27540;DHT22;15906;52.046;4.724;2023-03-24T11:39:21;12.80;99.90
27540;DHT22;15906;52.046;4.724;2023-03-24T11:50:20;13.60;99.90
27540;DHT22;15906;52.046;4.724;2023-03-24T11:53:00;14.10;99.90
27540;DHT22;15906;52.046;4.724;2023-03-24T11:55:34;14.40;99.90
27540;DHT22;15906;52.046;4.724;2023-03-24T11:58:07;14.50;99.90
27540;DHT22;15906;52.046;4.724;2023-03-24T12:01:05;14.10;99.90
27540;DHT22;15906;52.046;4.724;2023-03-24T12:06:53;14.30;99.90
27540;DHT22;15906;52.046;4.724;2023-03-24T12:15:05;13.80;99.90
27540;DHT22;15906;52.046;4.724;2023-03-24T12:17:41;13.70;99.90
27540;DHT22;15906;52.046;4.724;2023-03-24T12:23:27;14.10;99.90
27540;DHT22;15906;52.046;4.724;2023-03-24T12:26:11;14.60;99.90
27540;DHT22;15906;52.046;4.724;2023-03-24T12:31:42;15.00;99.90
27540;DHT22;15906;52.046;4.724;2023-03-24T12:54:16;14.90;99.90
27540;DHT22;15906;52.046;4.724;2023-03-24T12:56:58;15.20;99.90
27540;DHT22;15906;52.046;4.724;2023-03-24T12:59:38;15.00;99.90
27540;DHT22;15906;52.046;4.724;2023-03-24T13:02:24;14.50;99.90
27540;DHT22;15906;52.046;4.724;2023-03-24T13:04:54;14.40;99.90
27540;DHT22;15906;52.046;4.724;2023-03-24T13:07:22;14.20;99.90
27540;DHT22;15906;52.046;4.724;2023-03-24T13:09:58;14.30;99.90
27540;DHT22;15906;52.046;4.724;2023-03-24T13:12:31;14.10;99.90
27540;DHT22;15906;52.046;4.724;2023-03-24T13:15:23;14.20;99.90
27540;DHT22;15906;52.046;4.724;2023-03-24T13:20:46;14.30;99.90
27540;DHT22;15906;52.046;4.724;2023-03-24T13:26:16;14.80;99.90
27540;DHT22;15906;52.046;4.724;2023-03-24T13:29:02;14.90;99.90
27540;DHT22;15906;52.046;4.724;2023-03-24T13:34:33;14.60;99.90
27540;DHT22;15906;52.046;4.724;2023-03-24T13:37:15;14.80;99.90
27540;DHT22;15906;52.046;4.724;2023-03-24T13:39:43;14.60;99.90
27540;DHT22;15906;52.046;4.724;2023-03-24T13:42:31;14.80;99.90
27540;DHT22;15906;52.046;4.724;2023-03-24T13:45:03;14.70;99.90
27540;DHT22;15906;52.046;4.724;2023-03-24T13:47:47;14.30;99.90
27540;DHT22;15906;52.046;4.724;2023-03-24T13:50:14;14.30;99.90
27540;DHT22;15906;52.046;4.724;2023-03-24T13:52:46;14.20;99.90
27540;DHT22;15906;52.046;4.724;2023-03-24T13:55:25;14.00;99.90
27540;DHT22;15906;52.046;4.724;2023-03-24T13:57:59;14.10;99.90
27540;DHT22;15906;52.046;4.724;2023-03-24T14:00:26;14.20;99.90
27540;DHT22;15906;52.046;4.724;2023-03-24T14:03:11;14.20;99.90
27540;DHT22;15906;52.046;4.724;2023-03-24T14:05:58;14.20;99.90
27540;DHT22;15906;52.046;4.724;2023-03-24T14:11:47;14.60;99.90
27540;DHT22;15906;52.046;4.724;2023-03-24T14:22:38;13.90;99.90
27540;DHT22;15906;52.046;4.724;2023-03-24T14:24:40;14.10;99.90
27540;DHT22;15906;52.046;4.724;2023-03-24T14:27:35;14.20;99.90
27540;DHT22;15906;52.046;4.724;2023-03-24T14:30:22;14.20;99.90
27540;DHT22;15906;52.046;4.724;2023-03-24T14:32:50;14.20;99.90
27540;DHT22;15906;52.046;4.724;2023-03-24T14:38:03;14.30;99.90
27540;DHT22;15906;52.046;4.724;2023-03-24T14:40:40;14.10;99.90
27540;DHT22;15906;52.046;4.724;2023-03-24T14:45:55;14.20;99.90
27540;DHT22;15906;52.046;4.724;2023-03-24T14:51:00;14.00;99.90
27540;DHT22;15906;52.046;4.724;2023-03-24T14:53:28;13.90;99.90
27540;DHT22;15906;52.046;4.724;2023-03-24T14:55:54;13.80;99.90
27540;DHT22;15906;52.046;4.724;2023-03-24T14:58:26;13.90;99.90
27540;DHT22;15906;52.046;4.724;2023-03-24T15:00:58;14.00;99.90
27540;DHT22;15906;52.046;4.724;2023-03-24T15:03:40;14.20;99.90
27540;DHT22;15906;52.046;4.724;2023-03-24T15:06:18;14.10;99.90
27540;DHT22;15906;52.046;4.724;2023-03-24T15:08:48;14.20;99.90
27540;DHT22;15906;52.046;4.724;2023-03-24T15:11:15;14.00;99.90
27540;DHT22;15906;52.046;4.724;2023-03-24T15:13:48;13.90;99.90
27540;DHT22;15906;52.046;4.724;2023-03-24T15:16:18;13.90;99.90
27540;DHT22;15906;52.046;4.724;2023-03-24T15:18:47;13.80;99.90
27540;DHT22;15906;52.046;4.724;2023-03-24T15:23:59;13.70;99.90
27540;DHT22;15906;52.046;4.724;2023-03-24T15:26:30;13.60;99.90
27540;DHT22;15906;52.046;4.724;2023-03-24T15:29:00;13.70;99.90
27540;DHT22;15906;52.046;4.724;2023-03-24T15:31:27;13.60;99.90
27540;DHT22;15906;52.046;4.724;2023-03-24T15:34:02;13.70;99.90
27540;DHT22;15906;52.046;4.724;2023-03-24T15:36:41;13.70;99.90
27540;DHT22;15906;52.046;4.724;2023-03-24T15:39:17;13.60;99.90
27540;DHT22;15906;52.046;4.724;2023-03-24T15:41:44;13.60;99.90
27540;DHT22;15906;52.046;4.724;2023-03-24T15:44:16;13.60;99.90
27540;DHT22;15906;52.046;4.724;2023-03-24T15:46:43;13.60;99.90
27540;DHT22;15906;52.046;4.724;2023-03-24T15:49:17;13.70;99.90
27540;DHT22;15906;52.046;4.724;2023-03-24T15:54:51;13.80;99.90
27540;DHT22;15906;52.046;4.724;2023-03-24T15:57:21;13.80;99.90
27540;DHT22;15906;52.046;4.724;2023-03-24T15:59:49;13.70;99.90
27540;DHT22;15906;52.046;4.724;2023-03-24T16:02:35;13.70;99.90
27540;DHT22;15906;52.046;4.724;2023-03-24T16:05:23;13.70;99.90
27540;DHT22;15906;52.046;4.724;2023-03-24T16:07:59;13.50;99.90
27540;DHT22;15906;52.046;4.724;2023-03-24T16:10:27;13.40;99.90
27540;DHT22;15906;52.046;4.724;2023-03-24T16:13:11;13.20;99.90
27540;DHT22;15906;52.046;4.724;2023-03-24T16:15:40;13.20;99.90
27540;DHT22;15906;52.046;4.724;2023-03-24T16:18:07;13.10;99.90
27540;DHT22;15906;52.046;4.724;2023-03-24T16:20:33;13.00;99.90
27540;DHT22;15906;52.046;4.724;2023-03-24T16:22:59;13.00;99.90
27540;DHT22;15906;52.046;4.724;2023-03-24T16:25:25;12.80;99.90
27540;DHT22;15906;52.046;4.724;2023-03-24T16:27:50;12.80;99.90
27540;DHT22;15906;52.046;4.724;2023-03-24T16:30:19;12.70;99.90
27540;DHT22;15906;52.046;4.724;2023-03-24T16:32:45;12.70;99.90
27540;DHT22;15906;52.046;4.724;2023-03-24T16:35:11;12.70;99.90
27540;DHT22;15906;52.046;4.724;2023-03-24T16:37:36;12.70;99.90
27540;DHT22;15906;52.046;4.724;2023-03-24T16:40:02;12.70;99.90
27540;DHT22;15906;52.046;4.724;2023-03-24T16:42:30;12.60;99.90
27540;DHT22;15906;52.046;4.724;2023-03-24T16:44:55;12.70;99.90
27540;DHT22;15906;52.046;4.724;2023-03-24T16:47:21;12.70;99.90
27540;DHT22;15906;52.046;4.724;2023-03-24T16:49:46;12.60;99.90
27540;DHT22;15906;52.046;4.724;2023-03-24T16:52:12;12.60;99.90
27540;DHT22;15906;52.046;4.724;2023-03-24T16:54:37;12.60;99.90
27540;DHT22;15906;52.046;4.724;2023-03-24T16:57:03;12.60;99.90
27540;DHT22;15906;52.046;4.724;2023-03-24T16:59:29;12.60;99.90
27540;DHT22;15906;52.046;4.724;2023-03-24T17:01:59;12.60;99.90
27540;DHT22;15906;52.046;4.724;2023-03-24T17:04:27;12.60;99.90
27540;DHT22;15906;52.046;4.724;2023-03-24T17:06:57;12.50;99.90
27540;DHT22;15906;52.046;4.724;2023-03-24T17:09:23;12.60;99.90
27540;DHT22;15906;52.046;4.724;2023-03-24T17:11:51;12.50;99.90
27540;DHT22;15906;52.046;4.724;2023-03-24T17:14:17;12.40;99.90
27540;DHT22;15906;52.046;4.724;2023-03-24T17:16:44;12.40;99.90
27540;DHT22;15906;52.046;4.724;2023-03-24T17:19:15;12.30;99.90
27540;DHT22;15906;52.046;4.724;2023-03-24T17:21:48;12.20;99.90
27540;DHT22;15906;52.046;4.724;2023-03-24T17:24:14;12.20;99.90
27540;DHT22;15906;52.046;4.724;2023-03-24T17:26:40;12.10;99.90
27540;DHT22;15906;52.046;4.724;2023-03-24T17:29:08;12.20;99.90
27540;DHT22;15906;52.046;4.724;2023-03-24T17:31:35;12.10;99.90
27540;DHT22;15906;52.046;4.724;2023-03-24T17:34:01;12.20;99.90
27540;DHT22;15906;52.046;4.724;2023-03-24T17:36:27;12.20;99.90
27540;DHT22;15906;52.046;4.724;2023-03-24T17:38:52;12.20;99.90
27540;DHT22;15906;52.046;4.724;2023-03-24T17:41:18;12.20;99.90
27540;DHT22;15906;52.046;4.724;2023-03-24T17:43:44;12.30;99.90
27540;DHT22;15906;52.046;4.724;2023-03-24T17:46:10;12.30;99.90
27540;DHT22;15906;52.046;4.724;2023-03-24T17:48:36;12.20;99.90
27540;DHT22;15906;52.046;4.724;2023-03-24T17:51:02;12.20;99.90
27540;DHT22;15906;52.046;4.724;2023-03-24T17:53:28;12.20;99.90
27540;DHT22;15906;52.046;4.724;2023-03-24T17:55:55;12.20;99.90
27540;DHT22;15906;52.046;4.724;2023-03-24T17:58:22;12.20;99.90
27540;DHT22;15906;52.046;4.724;2023-03-24T18:00:48;12.10;99.90
27540;DHT22;15906;52.046;4.724;2023-03-24T18:03:14;12.10;99.90
27540;DHT22;15906;52.046;4.724;2023-03-24T18:05:41;12.10;99.90
27540;DHT22;15906;52.046;4.724;2023-03-24T18:08:06;12.10;99.90
27540;DHT22;15906;52.046;4.724;2023-03-24T18:10:33;12.00;99.90
27540;DHT22;15906;52.046;4.724;2023-03-24T18:13:04;11.90;99.90
27540;DHT22;15906;52.046;4.724;2023-03-24T18:15:30;11.90;99.90
27540;DHT22;15906;52.046;4.724;2023-03-24T18:17:56;11.80;99.90
27540;DHT22;15906;52.046;4.724;2023-03-24T18:20:21;11.80;99.90
27540;DHT22;15906;52.046;4.724;2023-03-24T18:22:47;11.70;99.90